Gogerbank, United Kingdom

7:26 PM GMT on January 17, 2017 (GMT +0000)
Corstorphine, Edinburgh | | Change Station

Elev 171 ft 55.94 °N, 3.30 °W | Updated 1 minute ago

Mostly Cloudy
Mostly Cloudy
48.4 °F
Feels Like 45 °F
N
6.8
Wind Variable Wind from WSW

Today
High -- | Low -- °F
--% Chance of Precip.
Yesterday
High -- | Low -- °F
Precip. -- in
Pressure 30.51 in
Visibility 6.2 miles
Clouds Mostly Cloudy 1200 ft
Windchill 45 °F
Dew Point 49 °F
Humidity 100%
Rainfall Not available.
Snow Depth Not available.
8:31 AM 4:16 PM
Waning Gibbous, 70% visible
METAR EGPH 171920Z 25011KT 9999 BKN012 09/07 Q1033
Pressure 30.51 in
Visibility 6.2 miles
Clouds Mostly Cloudy 1200 ft
Windchill 45 °F
Dew Point 49 °F
Humidity 100%
Rainfall Not available.
Snow Depth Not available.
8:31 AM 4:16 PM
Waning Gibbous, 70% visible
METAR EGPH 171920Z 25011KT 9999 BKN012 09/07 Q1033

Get Your Daily Forecast Email!

Thanks for signing up!

Be on the lookout for a verification email in your inbox.

You'll start receiving the daily forecast at 8 AM.

×

10-Day Weather Forecast

×

Almanac

Astronomy

Jan. 17, 2017 Rise Set
Actual Time
Civil Twilight
Nautical Twilight
Astronomical Twilight
Moon
Length of Visible Light
Length of Day
Tomorrow will be .
, % of the Moon is Illuminated

Today's Extremes

Country Highs Country Lows

Community

WunderPhotos

Upload Photos

1,962,540 photos uploaded!

WunderBlog® & News

Nearby

Air Quality

  Air Quality AQ Index Pollutant
Not available.

Snow Depth

Station Depth Elevation

Earthquake Activity

City Distance Mag. Time & Date
Minimum magnitude displayed is 2.5.

Coastal Water Temperatures

Place Temperature

Stations

Nearby Weather Stations

Station Location Temp. Windchill Dew Point Humidity Wind Precip. Elev Updated Type